sensor_id;sensor_type;location;lat;lon;timestamp;P1;durP1;ratioP1;P2;durP2;ratioP2
24743;SDS011;12844;52.110;5.548;2023-05-09T00:00:04;11.48;;;8.40;;
24743;SDS011;12844;52.110;5.548;2023-05-09T00:02:31;13.52;;;8.77;;
24743;SDS011;12844;52.110;5.548;2023-05-09T00:04:58;12.65;;;8.93;;
24743;SDS011;12844;52.110;5.548;2023-05-09T00:07:25;11.65;;;8.80;;
24743;SDS011;12844;52.110;5.548;2023-05-09T00:09:51;12.05;;;8.60;;
24743;SDS011;12844;52.110;5.548;2023-05-09T00:12:16;10.68;;;8.27;;
24743;SDS011;12844;52.110;5.548;2023-05-09T00:14:42;12.40;;;8.43;;
24743;SDS011;12844;52.110;5.548;2023-05-09T00:17:09;11.90;;;8.43;;
24743;SDS011;12844;52.110;5.548;2023-05-09T00:19:39;13.35;;;9.25;;
24743;SDS011;12844;52.110;5.548;2023-05-09T00:22:05;10.88;;;8.70;;
24743;SDS011;12844;52.110;5.548;2023-05-09T00:24:33;11.50;;;8.68;;
24743;SDS011;12844;52.110;5.548;2023-05-09T00:26:59;11.75;;;8.68;;
24743;SDS011;12844;52.110;5.548;2023-05-09T00:29:24;11.40;;;8.32;;
24743;SDS011;12844;52.110;5.548;2023-05-09T00:31:50;12.45;;;8.90;;
24743;SDS011;12844;52.110;5.548;2023-05-09T00:34:15;12.60;;;9.10;;
24743;SDS011;12844;52.110;5.548;2023-05-09T00:36:41;11.73;;;8.07;;
24743;SDS011;12844;52.110;5.548;2023-05-09T00:39:06;12.60;;;9.35;;
24743;SDS011;12844;52.110;5.548;2023-05-09T00:41:32;12.05;;;9.30;;
24743;SDS011;12844;52.110;5.548;2023-05-09T00:43:57;12.00;;;8.88;;
24743;SDS011;12844;52.110;5.548;2023-05-09T00:46:23;12.65;;;9.25;;
24743;SDS011;12844;52.110;5.548;2023-05-09T00:48:49;12.50;;;9.45;;
24743;SDS011;12844;52.110;5.548;2023-05-09T00:51:16;10.55;;;8.05;;
24743;SDS011;12844;52.110;5.548;2023-05-09T00:53:43;12.35;;;9.43;;
24743;SDS011;12844;52.110;5.548;2023-05-09T00:56:09;12.65;;;9.20;;
24743;SDS011;12844;52.110;5.548;2023-05-09T00:58:36;12.10;;;8.63;;
24743;SDS011;12844;52.110;5.548;2023-05-09T01:01:02;13.05;;;9.25;;
24743;SDS011;12844;52.110;5.548;2023-05-09T01:03:28;11.73;;;8.38;;
24743;SDS011;12844;52.110;5.548;2023-05-09T01:05:57;11.10;;;8.88;;
24743;SDS011;12844;52.110;5.548;2023-05-09T01:08:34;11.25;;;8.45;;
24743;SDS011;12844;52.110;5.548;2023-05-09T01:11:12;13.35;;;10.07;;
24743;SDS011;12844;52.110;5.548;2023-05-09T01:13:48;11.32;;;8.93;;
24743;SDS011;12844;52.110;5.548;2023-05-09T01:16:31;13.30;;;9.50;;
24743;SDS011;12844;52.110;5.548;2023-05-09T01:21:48;12.75;;;9.45;;
24743;SDS011;12844;52.110;5.548;2023-05-09T01:24:24;12.80;;;9.35;;
24743;SDS011;12844;52.110;5.548;2023-05-09T01:32:12;12.35;;;9.50;;
24743;SDS011;12844;52.110;5.548;2023-05-09T01:34:42;11.98;;;8.88;;
24743;SDS011;12844;52.110;5.548;2023-05-09T01:37:08;11.95;;;8.50;;
24743;SDS011;12844;52.110;5.548;2023-05-09T01:39:38;12.73;;;9.60;;
24743;SDS011;12844;52.110;5.548;2023-05-09T01:42:06;12.00;;;9.20;;
24743;SDS011;12844;52.110;5.548;2023-05-09T01:44:40;11.57;;;9.10;;
24743;SDS011;12844;52.110;5.548;2023-05-09T01:47:07;11.20;;;9.02;;
24743;SDS011;12844;52.110;5.548;2023-05-09T01:49:36;12.68;;;9.50;;
24743;SDS011;12844;52.110;5.548;2023-05-09T01:52:04;12.98;;;9.77;;
24743;SDS011;12844;52.110;5.548;2023-05-09T01:54:32;12.75;;;9.82;;
24743;SDS011;12844;52.110;5.548;2023-05-09T01:56:59;13.23;;;9.80;;
24743;SDS011;12844;52.110;5.548;2023-05-09T01:59:27;13.10;;;9.57;;
24743;SDS011;12844;52.110;5.548;2023-05-09T02:01:54;13.75;;;9.50;;
24743;SDS011;12844;52.110;5.548;2023-05-09T02:04:20;12.35;;;8.95;;
24743;SDS011;12844;52.110;5.548;2023-05-09T02:06:47;12.00;;;9.43;;
24743;SDS011;12844;52.110;5.548;2023-05-09T02:09:15;11.07;;;8.85;;
24743;SDS011;12844;52.110;5.548;2023-05-09T02:11:42;12.98;;;9.40;;
24743;SDS011;12844;52.110;5.548;2023-05-09T02:14:08;11.90;;;9.50;;
24743;SDS011;12844;52.110;5.548;2023-05-09T02:16:33;12.70;;;9.27;;
24743;SDS011;12844;52.110;5.548;2023-05-09T02:18:59;13.07;;;9.73;;
24743;SDS011;12844;52.110;5.548;2023-05-09T02:21:25;12.40;;;9.60;;
24743;SDS011;12844;52.110;5.548;2023-05-09T02:23:50;12.85;;;8.77;;
24743;SDS011;12844;52.110;5.548;2023-05-09T02:26:16;11.82;;;9.60;;
24743;SDS011;12844;52.110;5.548;2023-05-09T02:28:43;13.02;;;9.38;;
24743;SDS011;12844;52.110;5.548;2023-05-09T02:31:09;11.15;;;8.50;;
24743;SDS011;12844;52.110;5.548;2023-05-09T02:33:37;12.77;;;9.10;;
24743;SDS011;12844;52.110;5.548;2023-05-09T02:36:05;12.20;;;9.07;;
24743;SDS011;12844;52.110;5.548;2023-05-09T02:38:32;11.88;;;9.07;;
24743;SDS011;12844;52.110;5.548;2023-05-09T02:40:59;11.70;;;9.02;;
24743;SDS011;12844;52.110;5.548;2023-05-09T02:43:25;12.65;;;9.25;;
24743;SDS011;12844;52.110;5.548;2023-05-09T02:45:50;13.30;;;9.43;;
24743;SDS011;12844;52.110;5.548;2023-05-09T02:48:16;13.15;;;8.85;;
24743;SDS011;12844;52.110;5.548;2023-05-09T02:50:42;12.15;;;9.43;;
24743;SDS011;12844;52.110;5.548;2023-05-09T02:53:08;11.70;;;9.13;;
24743;SDS011;12844;52.110;5.548;2023-05-09T02:55:34;12.73;;;9.75;;
24743;SDS011;12844;52.110;5.548;2023-05-09T02:57:59;11.93;;;8.50;;
24743;SDS011;12844;52.110;5.548;2023-05-09T03:00:25;12.10;;;9.32;;
24743;SDS011;12844;52.110;5.548;2023-05-09T03:02:50;11.57;;;8.70;;
24743;SDS011;12844;52.110;5.548;2023-05-09T03:05:16;11.57;;;8.88;;
24743;SDS011;12844;52.110;5.548;2023-05-09T03:07:42;11.88;;;9.00;;
24743;SDS011;12844;52.110;5.548;2023-05-09T03:10:08;12.02;;;8.90;;
24743;SDS011;12844;52.110;5.548;2023-05-09T03:12:37;12.15;;;9.38;;
24743;SDS011;12844;52.110;5.548;2023-05-09T03:15:04;11.25;;;9.40;;
24743;SDS011;12844;52.110;5.548;2023-05-09T03:17:30;11.90;;;9.13;;
24743;SDS011;12844;52.110;5.548;2023-05-09T03:19:56;13.10;;;9.52;;
24743;SDS011;12844;52.110;5.548;2023-05-09T03:22:22;11.90;;;8.80;;
24743;SDS011;12844;52.110;5.548;2023-05-09T03:24:47;13.10;;;9.82;;
24743;SDS011;12844;52.110;5.548;2023-05-09T03:27:13;13.45;;;9.57;;
24743;SDS011;12844;52.110;5.548;2023-05-09T03:29:38;11.90;;;9.43;;
24743;SDS011;12844;52.110;5.548;2023-05-09T03:32:04;11.00;;;9.32;;
24743;SDS011;12844;52.110;5.548;2023-05-09T03:34:30;12.43;;;9.13;;
24743;SDS011;12844;52.110;5.548;2023-05-09T03:36:55;11.98;;;9.32;;
24743;SDS011;12844;52.110;5.548;2023-05-09T03:39:21;12.07;;;9.25;;
24743;SDS011;12844;52.110;5.548;2023-05-09T03:41:47;12.68;;;9.50;;
24743;SDS011;12844;52.110;5.548;2023-05-09T03:44:13;12.05;;;9.15;;
24743;SDS011;12844;52.110;5.548;2023-05-09T03:46:38;11.43;;;8.77;;
24743;SDS011;12844;52.110;5.548;2023-05-09T03:49:04;13.60;;;9.70;;
24743;SDS011;12844;52.110;5.548;2023-05-09T03:51:29;11.82;;;8.98;;
24743;SDS011;12844;52.110;5.548;2023-05-09T03:53:56;11.35;;;8.98;;
24743;SDS011;12844;52.110;5.548;2023-05-09T03:56:22;13.15;;;9.80;;
24743;SDS011;12844;52.110;5.548;2023-05-09T03:58:47;13.35;;;9.20;;
24743;SDS011;12844;52.110;5.548;2023-05-09T04:01:13;12.63;;;8.65;;
24743;SDS011;12844;52.110;5.548;2023-05-09T04:03:39;11.10;;;8.73;;
24743;SDS011;12844;52.110;5.548;2023-05-09T04:06:05;12.27;;;8.85;;
24743;SDS011;12844;52.110;5.548;2023-05-09T04:08:31;14.10;;;8.82;;
24743;SDS011;12844;52.110;5.548;2023-05-09T04:10:56;12.15;;;8.65;;
24743;SDS011;12844;52.110;5.548;2023-05-09T04:13:22;11.65;;;9.13;;
24743;SDS011;12844;52.110;5.548;2023-05-09T04:15:48;11.10;;;8.80;;
24743;SDS011;12844;52.110;5.548;2023-05-09T04:18:13;11.85;;;9.10;;
24743;SDS011;12844;52.110;5.548;2023-05-09T04:20:39;12.27;;;8.98;;
24743;SDS011;12844;52.110;5.548;2023-05-09T04:23:04;11.77;;;8.55;;
24743;SDS011;12844;52.110;5.548;2023-05-09T04:25:30;13.20;;;9.20;;
24743;SDS011;12844;52.110;5.548;2023-05-09T04:27:56;13.80;;;9.45;;
24743;SDS011;12844;52.110;5.548;2023-05-09T04:30:22;14.20;;;10.02;;
24743;SDS011;12844;52.110;5.548;2023-05-09T04:32:50;10.82;;;8.73;;
24743;SDS011;12844;52.110;5.548;2023-05-09T04:35:17;11.10;;;8.95;;
24743;SDS011;12844;52.110;5.548;2023-05-09T04:37:43;11.98;;;9.45;;
24743;SDS011;12844;52.110;5.548;2023-05-09T04:40:09;12.95;;;8.95;;
24743;SDS011;12844;52.110;5.548;2023-05-09T04:42:35;11.50;;;8.88;;
24743;SDS011;12844;52.110;5.548;2023-05-09T04:45:01;11.57;;;8.90;;
24743;SDS011;12844;52.110;5.548;2023-05-09T04:47:27;12.40;;;8.68;;
24743;SDS011;12844;52.110;5.548;2023-05-09T04:49:52;10.13;;;7.85;;
24743;SDS011;12844;52.110;5.548;2023-05-09T04:52:18;14.20;;;8.90;;
24743;SDS011;12844;52.110;5.548;2023-05-09T04:54:43;12.13;;;8.93;;
24743;SDS011;12844;52.110;5.548;2023-05-09T04:57:09;11.23;;;8.68;;
24743;SDS011;12844;52.110;5.548;2023-05-09T04:59:35;11.52;;;8.68;;
24743;SDS011;12844;52.110;5.548;2023-05-09T05:02:00;13.07;;;8.50;;
24743;SDS011;12844;52.110;5.548;2023-05-09T05:04:27;13.13;;;8.68;;
24743;SDS011;12844;52.110;5.548;2023-05-09T05:06:53;10.90;;;8.73;;
24743;SDS011;12844;52.110;5.548;2023-05-09T05:09:18;11.52;;;8.50;;
24743;SDS011;12844;52.110;5.548;2023-05-09T05:11:44;11.75;;;9.00;;
24743;SDS011;12844;52.110;5.548;2023-05-09T05:14:10;12.05;;;8.43;;
24743;SDS011;12844;52.110;5.548;2023-05-09T05:16:35;11.38;;;8.40;;
24743;SDS011;12844;52.110;5.548;2023-05-09T05:19:01;11.68;;;8.65;;
24743;SDS011;12844;52.110;5.548;2023-05-09T05:21:26;12.45;;;8.30;;
24743;SDS011;12844;52.110;5.548;2023-05-09T05:23:52;12.15;;;8.68;;
24743;SDS011;12844;52.110;5.548;2023-05-09T05:26:17;10.18;;;8.52;;
24743;SDS011;12844;52.110;5.548;2023-05-09T05:28:43;10.32;;;8.32;;
24743;SDS011;12844;52.110;5.548;2023-05-09T05:31:08;11.00;;;8.65;;
24743;SDS011;12844;52.110;5.548;2023-05-09T05:33:34;12.07;;;8.50;;
24743;SDS011;12844;52.110;5.548;2023-05-09T05:36:00;10.80;;;8.35;;
24743;SDS011;12844;52.110;5.548;2023-05-09T05:38:25;12.23;;;8.32;;
24743;SDS011;12844;52.110;5.548;2023-05-09T05:40:51;9.88;;;8.15;;
24743;SDS011;12844;52.110;5.548;2023-05-09T05:43:16;11.13;;;8.32;;
24743;SDS011;12844;52.110;5.548;2023-05-09T05:45:42;9.95;;;7.95;;
24743;SDS011;12844;52.110;5.548;2023-05-09T05:48:07;10.45;;;8.30;;
24743;SDS011;12844;52.110;5.548;2023-05-09T05:50:33;10.20;;;7.53;;
24743;SDS011;12844;52.110;5.548;2023-05-09T05:53:00;10.73;;;8.48;;
24743;SDS011;12844;52.110;5.548;2023-05-09T05:55:26;9.57;;;7.97;;
24743;SDS011;12844;52.110;5.548;2023-05-09T05:57:51;10.13;;;8.02;;
24743;SDS011;12844;52.110;5.548;2023-05-09T06:00:17;9.32;;;7.55;;
24743;SDS011;12844;52.110;5.548;2023-05-09T06:02:43;10.02;;;7.90;;
24743;SDS011;12844;52.110;5.548;2023-05-09T06:05:09;9.20;;;7.60;;
24743;SDS011;12844;52.110;5.548;2023-05-09T06:07:35;9.45;;;7.70;;
24743;SDS011;12844;52.110;5.548;2023-05-09T06:10:01;9.32;;;8.13;;
24743;SDS011;12844;52.110;5.548;2023-05-09T06:12:28;11.05;;;7.95;;
24743;SDS011;12844;52.110;5.548;2023-05-09T06:14:53;11.88;;;7.30;;
24743;SDS011;12844;52.110;5.548;2023-05-09T06:17:19;9.80;;;7.68;;
24743;SDS011;12844;52.110;5.548;2023-05-09T06:19:45;13.18;;;8.13;;
24743;SDS011;12844;52.110;5.548;2023-05-09T06:22:10;13.40;;;8.43;;
24743;SDS011;12844;52.110;5.548;2023-05-09T06:24:36;11.05;;;7.75;;
24743;SDS011;12844;52.110;5.548;2023-05-09T06:27:01;9.68;;;7.93;;
24743;SDS011;12844;52.110;5.548;2023-05-09T06:29:27;9.10;;;7.55;;
24743;SDS011;12844;52.110;5.548;2023-05-09T06:31:53;10.23;;;8.10;;
24743;SDS011;12844;52.110;5.548;2023-05-09T06:34:18;9.38;;;7.82;;
24743;SDS011;12844;52.110;5.548;2023-05-09T06:36:44;14.50;;;7.85;;
24743;SDS011;12844;52.110;5.548;2023-05-09T06:39:09;15.60;;;7.63;;
24743;SDS011;12844;52.110;5.548;2023-05-09T06:41:35;11.02;;;7.25;;
24743;SDS011;12844;52.110;5.548;2023-05-09T06:44:00;10.15;;;7.45;;
24743;SDS011;12844;52.110;5.548;2023-05-09T06:46:26;12.52;;;7.25;;
24743;SDS011;12844;52.110;5.548;2023-05-09T06:48:52;9.70;;;7.55;;
24743;SDS011;12844;52.110;5.548;2023-05-09T06:51:17;10.23;;;7.18;;
24743;SDS011;12844;52.110;5.548;2023-05-09T06:53:43;10.63;;;7.95;;
24743;SDS011;12844;52.110;5.548;2023-05-09T06:56:09;9.45;;;7.45;;
24743;SDS011;12844;52.110;5.548;2023-05-09T06:58:34;10.95;;;7.93;;
24743;SDS011;12844;52.110;5.548;2023-05-09T07:01:00;14.23;;;8.20;;
24743;SDS011;12844;52.110;5.548;2023-05-09T07:03:26;9.57;;;7.03;;
24743;SDS011;12844;52.110;5.548;2023-05-09T07:05:51;11.25;;;8.00;;
24743;SDS011;12844;52.110;5.548;2023-05-09T07:08:17;12.23;;;8.07;;
24743;SDS011;12844;52.110;5.548;2023-05-09T07:10:42;9.68;;;6.93;;
24743;SDS011;12844;52.110;5.548;2023-05-09T07:13:08;10.43;;;7.47;;
24743;SDS011;12844;52.110;5.548;2023-05-09T07:15:33;11.95;;;7.88;;
24743;SDS011;12844;52.110;5.548;2023-05-09T07:17:59;9.23;;;7.15;;
24743;SDS011;12844;52.110;5.548;2023-05-09T07:20:24;9.77;;;6.97;;
24743;SDS011;12844;52.110;5.548;2023-05-09T07:22:50;10.80;;;7.38;;
24743;SDS011;12844;52.110;5.548;2023-05-09T07:25:15;9.93;;;7.18;;
24743;SDS011;12844;52.110;5.548;2023-05-09T07:27:41;10.73;;;7.22;;
24743;SDS011;12844;52.110;5.548;2023-05-09T07:30:07;11.38;;;6.90;;
24743;SDS011;12844;52.110;5.548;2023-05-09T07:32:33;9.70;;;7.05;;
24743;SDS011;12844;52.110;5.548;2023-05-09T07:34:59;8.90;;;6.47;;
24743;SDS011;12844;52.110;5.548;2023-05-09T07:37:25;9.35;;;7.00;;
24743;SDS011;12844;52.110;5.548;2023-05-09T07:39:50;7.90;;;6.47;;
24743;SDS011;12844;52.110;5.548;2023-05-09T07:42:16;11.95;;;7.03;;
24743;SDS011;12844;52.110;5.548;2023-05-09T07:44:41;10.30;;;6.28;;
24743;SDS011;12844;52.110;5.548;2023-05-09T07:47:07;9.10;;;6.55;;
24743;SDS011;12844;52.110;5.548;2023-05-09T07:49:33;10.20;;;6.93;;
24743;SDS011;12844;52.110;5.548;2023-05-09T07:51:59;9.00;;;6.57;;
24743;SDS011;12844;52.110;5.548;2023-05-09T07:54:25;9.05;;;6.85;;
24743;SDS011;12844;52.110;5.548;2023-05-09T07:56:51;9.80;;;6.88;;
24743;SDS011;12844;52.110;5.548;2023-05-09T07:59:16;9.35;;;6.18;;
24743;SDS011;12844;52.110;5.548;2023-05-09T08:01:42;9.55;;;6.25;;
24743;SDS011;12844;52.110;5.548;2023-05-09T08:04:08;8.52;;;6.13;;
24743;SDS011;12844;52.110;5.548;2023-05-09T08:06:34;8.00;;;6.35;;
24743;SDS011;12844;52.110;5.548;2023-05-09T08:08:59;8.88;;;6.53;;
24743;SDS011;12844;52.110;5.548;2023-05-09T08:11:25;8.75;;;6.53;;
24743;SDS011;12844;52.110;5.548;2023-05-09T08:13:51;11.27;;;6.70;;
24743;SDS011;12844;52.110;5.548;2023-05-09T08:16:17;8.52;;;6.40;;
24743;SDS011;12844;52.110;5.548;2023-05-09T08:18:43;9.32;;;6.88;;
24743;SDS011;12844;52.110;5.548;2023-05-09T08:21:09;9.13;;;6.53;;
24743;SDS011;12844;52.110;5.548;2023-05-09T08:23:34;9.32;;;6.60;;
24743;SDS011;12844;52.110;5.548;2023-05-09T08:26:00;8.23;;;6.50;;
24743;SDS011;12844;52.110;5.548;2023-05-09T08:28:25;10.27;;;7.07;;
24743;SDS011;12844;52.110;5.548;2023-05-09T08:30:55;9.05;;;6.40;;
24743;SDS011;12844;52.110;5.548;2023-05-09T08:33:21;7.30;;;6.10;;
24743;SDS011;12844;52.110;5.548;2023-05-09T08:35:51;7.95;;;5.97;;
24743;SDS011;12844;52.110;5.548;2023-05-09T08:38:17;7.68;;;6.65;;
24743;SDS011;12844;52.110;5.548;2023-05-09T08:40:42;8.25;;;6.50;;
24743;SDS011;12844;52.110;5.548;2023-05-09T08:43:08;7.97;;;5.63;;
24743;SDS011;12844;52.110;5.548;2023-05-09T08:45:38;8.38;;;5.85;;
24743;SDS011;12844;52.110;5.548;2023-05-09T08:48:09;8.35;;;6.15;;
24743;SDS011;12844;52.110;5.548;2023-05-09T08:50:36;7.63;;;6.07;;
24743;SDS011;12844;52.110;5.548;2023-05-09T08:53:02;7.25;;;5.80;;
24743;SDS011;12844;52.110;5.548;2023-05-09T08:55:28;8.63;;;6.50;;
24743;SDS011;12844;52.110;5.548;2023-05-09T08:57:53;7.47;;;5.63;;
24743;SDS011;12844;52.110;5.548;2023-05-09T09:00:19;9.23;;;6.18;;
24743;SDS011;12844;52.110;5.548;2023-05-09T09:02:46;8.88;;;6.25;;
24743;SDS011;12844;52.110;5.548;2023-05-09T09:05:12;6.00;;;5.40;;
24743;SDS011;12844;52.110;5.548;2023-05-09T09:07:38;7.97;;;5.70;;
24743;SDS011;12844;52.110;5.548;2023-05-09T09:10:05;7.47;;;5.53;;
24743;SDS011;12844;52.110;5.548;2023-05-09T09:12:33;8.25;;;6.10;;
24743;SDS011;12844;52.110;5.548;2023-05-09T09:15:01;6.70;;;5.78;;
24743;SDS011;12844;52.110;5.548;2023-05-09T09:17:28;7.53;;;5.72;;
24743;SDS011;12844;52.110;5.548;2023-05-09T09:19:56;7.18;;;5.60;;
24743;SDS011;12844;52.110;5.548;2023-05-09T09:22:24;6.20;;;5.40;;
24743;SDS011;12844;52.110;5.548;2023-05-09T09:24:58;8.45;;;5.72;;
24743;SDS011;12844;52.110;5.548;2023-05-09T09:27:25;7.93;;;5.45;;
24743;SDS011;12844;52.110;5.548;2023-05-09T09:29:51;6.60;;;5.43;;
24743;SDS011;12844;52.110;5.548;2023-05-09T09:32:16;7.63;;;5.63;;
24743;SDS011;12844;52.110;5.548;2023-05-09T09:34:43;7.15;;;5.63;;
24743;SDS011;12844;52.110;5.548;2023-05-09T09:37:22;6.45;;;4.97;;
24743;SDS011;12844;52.110;5.548;2023-05-09T09:39:55;6.70;;;5.20;;
24743;SDS011;12844;52.110;5.548;2023-05-09T09:42:20;8.88;;;5.15;;
24743;SDS011;12844;52.110;5.548;2023-05-09T09:45:30;5.88;;;5.07;;
24743;SDS011;12844;52.110;5.548;2023-05-09T09:50:10;6.85;;;5.22;;
24743;SDS011;12844;52.110;5.548;2023-05-09T09:52:41;7.13;;;5.10;;
24743;SDS011;12844;52.110;5.548;2023-05-09T09:55:14;7.25;;;5.32;;
24743;SDS011;12844;52.110;5.548;2023-05-09T09:57:39;5.70;;;4.35;;
24743;SDS011;12844;52.110;5.548;2023-05-09T10:00:09;7.25;;;5.30;;
24743;SDS011;12844;52.110;5.548;2023-05-09T10:02:45;7.35;;;4.95;;
24743;SDS011;12844;52.110;5.548;2023-05-09T10:05:21;6.82;;;4.72;;
24743;SDS011;12844;52.110;5.548;2023-05-09T10:07:49;6.82;;;4.88;;
24743;SDS011;12844;52.110;5.548;2023-05-09T10:10:25;6.07;;;4.72;;
24743;SDS011;12844;52.110;5.548;2023-05-09T10:12:58;5.72;;;4.97;;
24743;SDS011;12844;52.110;5.548;2023-05-09T10:15:27;5.10;;;4.60;;
24743;SDS011;12844;52.110;5.548;2023-05-09T10:17:55;5.57;;;4.50;;
24743;SDS011;12844;52.110;5.548;2023-05-09T10:20:21;6.03;;;4.70;;
24743;SDS011;12844;52.110;5.548;2023-05-09T10:22:48;6.57;;;4.57;;
24743;SDS011;12844;52.110;5.548;2023-05-09T10:25:21;8.27;;;4.80;;
24743;SDS011;12844;52.110;5.548;2023-05-09T10:28:09;6.80;;;4.65;;
24743;SDS011;12844;52.110;5.548;2023-05-09T10:30:49;7.97;;;4.60;;
24743;SDS011;12844;52.110;5.548;2023-05-09T10:33:30;9.07;;;4.55;;
24743;SDS011;12844;52.110;5.548;2023-05-09T10:36:01;17.33;;;5.10;;
24743;SDS011;12844;52.110;5.548;2023-05-09T10:38:27;6.60;;;4.88;;
24743;SDS011;12844;52.110;5.548;2023-05-09T10:40:54;7.35;;;4.45;;
24743;SDS011;12844;52.110;5.548;2023-05-09T10:43:21;5.03;;;3.92;;
24743;SDS011;12844;52.110;5.548;2023-05-09T10:45:49;7.85;;;4.47;;
24743;SDS011;12844;52.110;5.548;2023-05-09T10:48:15;6.78;;;4.70;;
24743;SDS011;12844;52.110;5.548;2023-05-09T10:50:42;8.57;;;4.43;;
24743;SDS011;12844;52.110;5.548;2023-05-09T10:53:09;8.65;;;4.75;;
24743;SDS011;12844;52.110;5.548;2023-05-09T10:55:38;8.25;;;4.18;;
24743;SDS011;12844;52.110;5.548;2023-05-09T10:58:20;8.07;;;4.63;;
24743;SDS011;12844;52.110;5.548;2023-05-09T11:00:48;7.15;;;4.40;;
24743;SDS011;12844;52.110;5.548;2023-05-09T11:03:15;7.60;;;4.50;;
24743;SDS011;12844;52.110;5.548;2023-05-09T11:05:43;7.95;;;4.18;;
24743;SDS011;12844;52.110;5.548;2023-05-09T11:08:26;8.38;;;4.45;;
24743;SDS011;12844;52.110;5.548;2023-05-09T11:10:53;5.88;;;4.22;;
24743;SDS011;12844;52.110;5.548;2023-05-09T11:13:31;7.68;;;4.40;;
24743;SDS011;12844;52.110;5.548;2023-05-09T11:18:30;6.88;;;4.32;;
24743;SDS011;12844;52.110;5.548;2023-05-09T11:20:56;9.73;;;4.72;;
24743;SDS011;12844;52.110;5.548;2023-05-09T11:23:26;5.95;;;4.68;;
24743;SDS011;12844;52.110;5.548;2023-05-09T11:26:02;6.93;;;4.30;;
24743;SDS011;12844;52.110;5.548;2023-05-09T11:28:33;7.43;;;4.20;;
24743;SDS011;12844;52.110;5.548;2023-05-09T11:31:13;8.30;;;4.57;;
24743;SDS011;12844;52.110;5.548;2023-05-09T11:33:40;4.97;;;3.80;;
24743;SDS011;12844;52.110;5.548;2023-05-09T11:36:14;8.88;;;3.90;;
24743;SDS011;12844;52.110;5.548;2023-05-09T11:38:40;6.57;;;4.18;;
24743;SDS011;12844;52.110;5.548;2023-05-09T11:41:06;6.35;;;4.03;;
24743;SDS011;12844;52.110;5.548;2023-05-09T11:43:33;7.63;;;4.05;;
24743;SDS011;12844;52.110;5.548;2023-05-09T11:46:00;5.07;;;3.67;;
24743;SDS011;12844;52.110;5.548;2023-05-09T11:48:27;6.10;;;4.15;;
24743;SDS011;12844;52.110;5.548;2023-05-09T11:50:52;6.28;;;3.83;;
24743;SDS011;12844;52.110;5.548;2023-05-09T11:53:18;5.93;;;3.53;;
24743;SDS011;12844;52.110;5.548;2023-05-09T11:55:43;5.13;;;4.10;;
24743;SDS011;12844;52.110;5.548;2023-05-09T11:58:09;6.90;;;3.85;;
24743;SDS011;12844;52.110;5.548;2023-05-09T12:00:35;5.30;;;3.42;;
24743;SDS011;12844;52.110;5.548;2023-05-09T12:03:07;5.70;;;3.67;;
24743;SDS011;12844;52.110;5.548;2023-05-09T12:05:33;5.72;;;3.40;;
24743;SDS011;12844;52.110;5.548;2023-05-09T12:08:02;5.88;;;3.58;;
24743;SDS011;12844;52.110;5.548;2023-05-09T12:10:30;3.95;;;3.35;;
24743;SDS011;12844;52.110;5.548;2023-05-09T12:12:56;4.35;;;3.70;;
24743;SDS011;12844;52.110;5.548;2023-05-09T12:15:22;4.35;;;3.30;;
24743;SDS011;12844;52.110;5.548;2023-05-09T12:18:01;6.20;;;3.80;;
24743;SDS011;12844;52.110;5.548;2023-05-09T12:20:38;5.38;;;3.58;;
24743;SDS011;12844;52.110;5.548;2023-05-09T12:23:05;5.13;;;3.50;;
24743;SDS011;12844;52.110;5.548;2023-05-09T12:25:31;7.93;;;3.67;;
24743;SDS011;12844;52.110;5.548;2023-05-09T12:27:56;4.80;;;3.53;;
24743;SDS011;12844;52.110;5.548;2023-05-09T12:30:22;5.57;;;3.35;;
24743;SDS011;12844;52.110;5.548;2023-05-09T12:32:48;5.30;;;3.45;;
24743;SDS011;12844;52.110;5.548;2023-05-09T12:35:13;5.07;;;3.40;;
24743;SDS011;12844;52.110;5.548;2023-05-09T12:37:40;5.05;;;3.58;;
24743;SDS011;12844;52.110;5.548;2023-05-09T12:40:27;4.03;;;3.55;;
24743;SDS011;12844;52.110;5.548;2023-05-09T12:42:53;4.43;;;3.35;;
24743;SDS011;12844;52.110;5.548;2023-05-09T12:45:24;4.53;;;3.20;;
24743;SDS011;12844;52.110;5.548;2023-05-09T12:47:51;3.97;;;3.20;;
24743;SDS011;12844;52.110;5.548;2023-05-09T12:50:17;5.07;;;3.47;;
24743;SDS011;12844;52.110;5.548;2023-05-09T12:52:43;5.55;;;3.35;;
24743;SDS011;12844;52.110;5.548;2023-05-09T12:55:15;4.82;;;3.30;;
24743;SDS011;12844;52.110;5.548;2023-05-09T12:57:42;4.80;;;2.88;;
24743;SDS011;12844;52.110;5.548;2023-05-09T13:00:25;4.38;;;3.13;;
24743;SDS011;12844;52.110;5.548;2023-05-09T13:02:51;3.72;;;3.20;;
24743;SDS011;12844;52.110;5.548;2023-05-09T13:05:18;5.25;;;3.08;;
24743;SDS011;12844;52.110;5.548;2023-05-09T13:07:45;3.45;;;3.10;;
24743;SDS011;12844;52.110;5.548;2023-05-09T13:10:13;3.90;;;3.20;;
24743;SDS011;12844;52.110;5.548;2023-05-09T13:12:45;4.85;;;3.05;;
24743;SDS011;12844;52.110;5.548;2023-05-09T13:15:13;3.40;;;3.10;;
24743;SDS011;12844;52.110;5.548;2023-05-09T13:17:40;3.83;;;3.03;;
24743;SDS011;12844;52.110;5.548;2023-05-09T13:20:06;3.83;;;3.15;;
24743;SDS011;12844;52.110;5.548;2023-05-09T13:22:32;3.10;;;2.80;;
24743;SDS011;12844;52.110;5.548;2023-05-09T13:24:58;4.03;;;3.22;;
24743;SDS011;12844;52.110;5.548;2023-05-09T13:27:24;3.38;;;2.92;;
24743;SDS011;12844;52.110;5.548;2023-05-09T13:29:49;3.45;;;3.00;;
24743;SDS011;12844;52.110;5.548;2023-05-09T13:32:15;5.22;;;3.25;;
24743;SDS011;12844;52.110;5.548;2023-05-09T13:34:40;3.25;;;2.78;;
24743;SDS011;12844;52.110;5.548;2023-05-09T13:37:06;3.97;;;2.85;;
24743;SDS011;12844;52.110;5.548;2023-05-09T13:39:32;2.97;;;2.63;;
24743;SDS011;12844;52.110;5.548;2023-05-09T13:41:57;3.20;;;2.88;;
24743;SDS011;12844;52.110;5.548;2023-05-09T13:44:23;3.42;;;2.75;;
24743;SDS011;12844;52.110;5.548;2023-05-09T13:46:48;3.88;;;2.78;;
24743;SDS011;12844;52.110;5.548;2023-05-09T13:49:14;3.67;;;2.72;;
24743;SDS011;12844;52.110;5.548;2023-05-09T13:51:40;3.40;;;2.90;;
24743;SDS011;12844;52.110;5.548;2023-05-09T13:54:05;4.70;;;2.90;;
24743;SDS011;12844;52.110;5.548;2023-05-09T13:56:36;2.72;;;2.42;;
24743;SDS011;12844;52.110;5.548;2023-05-09T13:59:06;2.85;;;2.55;;
24743;SDS011;12844;52.110;5.548;2023-05-09T14:01:32;3.10;;;2.58;;
24743;SDS011;12844;52.110;5.548;2023-05-09T14:03:58;4.45;;;2.50;;
24743;SDS011;12844;52.110;5.548;2023-05-09T14:06:25;3.83;;;2.95;;
24743;SDS011;12844;52.110;5.548;2023-05-09T14:08:50;2.90;;;2.50;;
24743;SDS011;12844;52.110;5.548;2023-05-09T14:11:16;3.17;;;2.58;;
24743;SDS011;12844;52.110;5.548;2023-05-09T14:13:41;2.88;;;2.45;;
24743;SDS011;12844;52.110;5.548;2023-05-09T14:16:07;3.15;;;2.35;;
24743;SDS011;12844;52.110;5.548;2023-05-09T14:18:33;3.63;;;2.70;;
24743;SDS011;12844;52.110;5.548;2023-05-09T14:20:59;2.72;;;2.47;;
24743;SDS011;12844;52.110;5.548;2023-05-09T14:23:25;3.38;;;2.38;;
24743;SDS011;12844;52.110;5.548;2023-05-09T14:25:50;2.90;;;2.60;;
24743;SDS011;12844;52.110;5.548;2023-05-09T14:28:16;3.05;;;2.65;;
24743;SDS011;12844;52.110;5.548;2023-05-09T14:30:41;3.15;;;2.78;;
24743;SDS011;12844;52.110;5.548;2023-05-09T14:33:07;3.88;;;2.35;;
24743;SDS011;12844;52.110;5.548;2023-05-09T14:35:33;3.25;;;2.22;;
24743;SDS011;12844;52.110;5.548;2023-05-09T14:37:59;2.55;;;2.35;;
24743;SDS011;12844;52.110;5.548;2023-05-09T14:40:25;2.80;;;2.22;;
24743;SDS011;12844;52.110;5.548;2023-05-09T14:42:56;2.95;;;2.40;;
24743;SDS011;12844;52.110;5.548;2023-05-09T14:45:22;4.10;;;2.47;;
24743;SDS011;12844;52.110;5.548;2023-05-09T14:47:47;2.55;;;2.35;;
24743;SDS011;12844;52.110;5.548;2023-05-09T14:50:13;3.17;;;2.40;;
24743;SDS011;12844;52.110;5.548;2023-05-09T14:52:39;3.90;;;2.30;;